createdAt,value
2018-07-02T00:00:33.995Z,18.90
2018-07-02T00:03:03.419Z,18.80
2018-07-02T00:05:49.681Z,18.80
2018-07-02T00:08:19.106Z,18.70
2018-07-02T00:10:48.485Z,18.70
2018-07-02T00:13:17.988Z,18.70
2018-07-02T00:15:47.349Z,18.70
2018-07-02T00:18:16.651Z,18.70
2018-07-02T00:20:46.115Z,18.70
2018-07-02T00:23:15.180Z,18.60
2018-07-02T00:25:44.540Z,18.60
2018-07-02T00:28:13.913Z,18.60
2018-07-02T00:30:43.317Z,18.50
2018-07-02T00:33:12.689Z,18.50
2018-07-02T00:35:42.038Z,18.50
2018-07-02T00:38:11.398Z,18.50
2018-07-02T00:40:40.976Z,18.40
2018-07-02T00:43:10.383Z,18.30
2018-07-02T00:45:39.793Z,18.30
2018-07-02T00:48:09.175Z,18.20
2018-07-02T00:50:38.588Z,18.20
2018-07-02T00:53:07.645Z,18.10
2018-07-02T00:55:37.018Z,18.10
2018-07-02T00:58:06.461Z,18.10
2018-07-02T01:00:35.851Z,18.10
2018-07-02T01:03:05.255Z,18.00
2018-07-02T01:05:34.652Z,18.00
2018-07-02T01:08:04.040Z,18.00
2018-07-02T01:10:33.600Z,18.00
2018-07-02T01:13:02.968Z,18.00
2018-07-02T01:15:32.308Z,18.00
2018-07-02T01:18:01.709Z,17.90
2018-07-02T01:20:31.069Z,17.90
2018-07-02T01:23:00.452Z,17.90
2018-07-02T01:25:29.852Z,17.90
2018-07-02T01:27:59.251Z,17.90
2018-07-02T01:30:28.665Z,17.80
2018-07-02T01:32:58.973Z,17.80
2018-07-02T01:35:28.350Z,17.80
2018-07-02T01:37:57.713Z,17.70
2018-07-02T01:40:27.087Z,17.70
2018-07-02T01:42:56.504Z,17.70
2018-07-02T01:45:25.919Z,17.70
2018-07-02T01:47:55.282Z,17.60
2018-07-02T01:50:24.648Z,17.60
2018-07-02T01:52:53.770Z,17.60
2018-07-02T01:55:23.153Z,17.60
2018-07-02T01:57:52.541Z,17.60
2018-07-02T02:00:21.894Z,17.50
2018-07-02T02:02:51.329Z,17.50
2018-07-02T02:05:20.719Z,17.50
2018-07-02T02:07:50.092Z,17.50
2018-07-02T02:10:19.482Z,17.50
2018-07-02T02:12:48.854Z,17.40
2018-07-02T02:15:18.281Z,17.40
2018-07-02T02:17:47.682Z,17.40
2018-07-02T02:20:17.094Z,17.40
2018-07-02T02:22:46.525Z,17.40
2018-07-02T02:25:15.932Z,17.30
2018-07-02T02:27:45.357Z,17.30
2018-07-02T02:30:14.736Z,17.30
2018-07-02T02:32:44.152Z,17.20
2018-07-02T02:35:13.492Z,17.20
2018-07-02T02:37:42.925Z,17.20
2018-07-02T02:40:12.363Z,17.10
2018-07-02T02:42:42.202Z,17.10
2018-07-02T02:45:11.647Z,17.10
2018-07-02T02:47:41.107Z,17.10
2018-07-02T02:50:10.517Z,17.10
2018-07-02T02:52:39.869Z,17.10
2018-07-02T02:55:09.333Z,17.00
2018-07-02T02:57:38.654Z,17.00
2018-07-02T03:00:08.185Z,17.00
2018-07-02T03:02:37.613Z,17.00
2018-07-02T03:05:07.558Z,17.00
2018-07-02T03:07:36.911Z,17.00
2018-07-02T03:10:06.400Z,16.90
2018-07-02T03:12:35.737Z,16.90
2018-07-02T03:15:05.791Z,16.90
2018-07-02T03:17:35.141Z,16.90
2018-07-02T03:20:04.887Z,16.90
2018-07-02T03:22:34.286Z,16.90
2018-07-02T03:25:03.793Z,16.90
2018-07-02T03:27:33.156Z,16.90
2018-07-02T03:30:02.513Z,16.90
2018-07-02T03:32:31.891Z,16.90
2018-07-02T03:35:01.310Z,16.90
2018-07-02T03:37:30.697Z,16.90
2018-07-02T03:40:00.077Z,16.90
2018-07-02T03:42:29.516Z,17.00
2018-07-02T03:44:58.877Z,17.00
2018-07-02T03:47:28.398Z,17.00
2018-07-02T03:49:57.758Z,17.00
2018-07-02T03:52:27.190Z,17.10
2018-07-02T03:54:56.592Z,17.10
2018-07-02T03:57:26.005Z,17.10
2018-07-02T03:59:55.372Z,17.10
2018-07-02T04:02:25.570Z,17.10
2018-07-02T04:04:55.045Z,17.10
2018-07-02T04:07:24.426Z,17.10
2018-07-02T04:09:53.862Z,17.10
2018-07-02T04:12:23.311Z,17.20
2018-07-02T04:14:52.661Z,17.20
2018-07-02T04:17:22.197Z,17.20
2018-07-02T04:19:51.625Z,17.20
2018-07-02T04:22:21.662Z,17.20
2018-07-02T04:24:51.536Z,17.20
2018-07-02T04:27:20.956Z,17.20
2018-07-02T04:29:50.421Z,17.20
2018-07-02T04:32:19.983Z,17.20
2018-07-02T04:34:49.342Z,17.20
2018-07-02T04:37:18.676Z,17.30
2018-07-02T04:39:48.122Z,17.30
2018-07-02T04:42:18.300Z,17.30
2018-07-02T04:44:47.845Z,17.30
2018-07-02T04:47:17.220Z,17.40
2018-07-02T04:49:46.586Z,17.50
2018-07-02T04:52:16.031Z,17.50
2018-07-02T04:54:45.109Z,17.60
2018-07-02T04:57:14.484Z,17.60
2018-07-02T04:59:43.829Z,17.70
2018-07-02T05:02:13.174Z,17.70
2018-07-02T05:04:42.556Z,17.80
2018-07-02T05:07:11.913Z,17.80
2018-07-02T05:09:41.287Z,17.90
2018-07-02T05:12:11.782Z,18.00
2018-07-02T05:14:42.269Z,18.10
2018-07-02T05:17:11.676Z,18.20
2018-07-02T05:19:41.001Z,18.30
2018-07-02T05:22:10.340Z,18.40
2018-07-02T05:24:39.809Z,18.60
2018-07-02T05:27:09.470Z,18.70
2018-07-02T05:29:38.901Z,18.80
2018-07-02T05:32:08.480Z,18.90
2018-07-02T05:34:38.199Z,19.00
2018-07-02T05:37:07.591Z,19.10
2018-07-02T05:39:37.009Z,19.20
2018-07-02T05:42:07.424Z,19.30
2018-07-02T05:44:36.817Z,19.40
2018-07-02T05:47:06.560Z,19.50
2018-07-02T05:49:35.997Z,19.60
2018-07-02T05:52:05.220Z,19.70
2018-07-02T05:54:34.684Z,19.80
2018-07-02T05:57:04.205Z,19.90
2018-07-02T05:59:33.544Z,20.00
2018-07-02T06:02:02.944Z,20.00
2018-07-02T06:04:32.406Z,20.10
2018-07-02T06:07:01.887Z,20.20
2018-07-02T06:09:31.263Z,20.30
2018-07-02T06:12:00.638Z,20.40
2018-07-02T06:14:29.699Z,20.50
2018-07-02T06:16:59.070Z,20.60
2018-07-02T06:19:28.433Z,20.70
2018-07-02T06:21:57.774Z,20.90
2018-07-02T06:24:27.149Z,21.00
2018-07-02T06:26:56.606Z,21.10
2018-07-02T06:29:26.002Z,21.10
2018-07-02T06:31:55.411Z,21.20
2018-07-02T06:34:24.757Z,21.30
2018-07-02T06:36:54.072Z,21.40
2018-07-02T06:39:23.443Z,21.60
2018-07-02T06:41:52.804Z,21.70
2018-07-02T06:44:22.245Z,21.80
2018-07-02T06:46:51.657Z,21.90
2018-07-02T06:49:21.043Z,22.00
2018-07-02T06:51:50.426Z,22.10
2018-07-02T06:54:19.788Z,22.20
2018-07-02T06:56:49.522Z,22.30
2018-07-02T06:59:18.892Z,22.50
2018-07-02T07:01:48.631Z,22.60
2018-07-02T07:04:17.961Z,22.70
2018-07-02T07:06:47.300Z,22.80
2018-07-02T07:09:16.636Z,23.00
2018-07-02T07:11:45.975Z,23.20
2018-07-02T07:14:15.351Z,23.40
2018-07-02T07:16:44.734Z,23.60
2018-07-02T07:19:14.092Z,23.80
2018-07-02T07:21:43.492Z,24.00
2018-07-02T07:24:12.878Z,24.20
2018-07-02T07:26:42.190Z,24.40
2018-07-02T07:29:11.592Z,24.70
2018-07-02T07:31:40.967Z,24.90
2018-07-02T07:34:10.406Z,25.20
2018-07-02T07:36:39.764Z,25.40
2018-07-02T07:39:11.003Z,25.50
2018-07-02T07:41:40.818Z,25.70
2018-07-02T07:44:10.192Z,25.80
2018-07-02T07:46:39.541Z,25.90
2018-07-02T07:49:08.964Z,26.00
2018-07-02T07:51:38.381Z,26.20
2018-07-02T07:54:07.858Z,26.30
2018-07-02T07:56:36.941Z,26.60
2018-07-02T07:59:06.333Z,26.90
2018-07-02T08:01:35.729Z,27.10
2018-07-02T08:04:05.153Z,27.30
2018-07-02T08:06:34.639Z,27.40
2018-07-02T08:09:06.285Z,27.50
2018-07-02T08:11:35.682Z,27.60
2018-07-02T08:14:05.103Z,27.70
2018-07-02T08:16:34.511Z,27.90
2018-07-02T08:19:04.200Z,28.10
2018-07-02T08:21:33.481Z,28.30
2018-07-02T08:24:03.004Z,28.40
2018-07-02T08:26:32.410Z,28.50
2018-07-02T08:29:01.854Z,28.50
2018-07-02T08:31:31.254Z,28.50
2018-07-02T08:34:00.623Z,28.50
2018-07-02T08:36:29.998Z,28.60
2018-07-02T08:38:59.132Z,28.70
2018-07-02T08:41:28.706Z,28.90
2018-07-02T08:43:58.289Z,29.10
2018-07-02T08:46:27.698Z,29.30
2018-07-02T08:48:57.075Z,29.60
2018-07-02T08:51:26.519Z,29.80
2018-07-02T08:53:55.992Z,29.80
2018-07-02T08:56:25.563Z,29.60
2018-07-02T08:58:55.945Z,29.50
2018-07-02T09:01:25.284Z,29.60
2018-07-02T09:03:54.678Z,29.80
2018-07-02T09:09:24.357Z,30.00
2018-07-02T09:11:53.690Z,30.10
2018-07-02T09:14:23.093Z,30.30
2018-07-02T09:16:52.450Z,30.50
2018-07-02T09:19:22.077Z,30.70
2018-07-02T09:21:51.484Z,30.80
2018-07-02T09:24:20.847Z,30.90
2018-07-02T09:26:50.234Z,30.90
2018-07-02T09:29:19.603Z,30.90
2018-07-02T09:31:49.024Z,30.80
2018-07-02T09:34:18.633Z,30.70
2018-07-02T09:36:47.795Z,30.50
2018-07-02T09:39:17.250Z,30.30
2018-07-02T09:41:46.586Z,30.20
2018-07-02T09:44:16.094Z,30.00
2018-07-02T09:46:45.465Z,29.80
2018-07-02T09:49:14.911Z,29.60
2018-07-02T09:51:44.372Z,29.40
2018-07-02T09:54:13.731Z,29.20
2018-07-02T09:56:43.302Z,28.90
2018-07-02T09:59:12.667Z,28.80
2018-07-02T10:01:42.060Z,28.70
2018-07-02T10:04:11.446Z,28.50
2018-07-02T10:06:40.934Z,28.30
2018-07-02T10:09:12.681Z,28.10
2018-07-02T10:11:42.199Z,27.90
2018-07-02T10:14:11.612Z,27.70
2018-07-02T10:16:41.034Z,27.50
2018-07-02T10:19:10.445Z,27.40
2018-07-02T10:21:39.981Z,27.30
2018-07-02T10:24:09.458Z,27.20
2018-07-02T10:26:38.833Z,27.10
2018-07-02T10:29:08.247Z,27.00
2018-07-02T10:31:37.693Z,26.90
2018-07-02T10:34:07.166Z,26.80
2018-07-02T10:36:36.587Z,26.70
2018-07-02T10:39:08.878Z,26.60
2018-07-02T10:41:38.866Z,26.50
2018-07-02T10:44:08.241Z,26.40
2018-07-02T10:46:37.635Z,26.40
2018-07-02T10:49:07.015Z,26.30
2018-07-02T10:51:36.357Z,26.30
2018-07-02T10:54:05.937Z,26.20
2018-07-02T10:56:35.459Z,26.20
2018-07-02T10:59:05.225Z,26.10
2018-07-02T11:01:35.148Z,26.10
2018-07-02T11:04:04.821Z,26.00
2018-07-02T11:06:34.190Z,26.00
2018-07-02T11:09:03.769Z,25.90
2018-07-02T11:11:33.355Z,25.90
2018-07-02T11:14:02.766Z,25.80
2018-07-02T11:16:32.168Z,25.80
2018-07-02T11:19:01.714Z,25.80
2018-07-02T11:21:31.313Z,25.70
2018-07-02T11:24:00.680Z,25.60
2018-07-02T11:26:30.087Z,25.60
2018-07-02T11:28:59.466Z,25.60
2018-07-02T11:31:28.945Z,25.60
2018-07-02T11:33:58.293Z,25.60
2018-07-02T11:36:27.726Z,25.50
2018-07-02T11:38:57.088Z,25.50
2018-07-02T11:41:26.468Z,25.50
2018-07-02T11:43:55.809Z,25.50
2018-07-02T11:46:25.273Z,25.50
2018-07-02T11:48:54.667Z,25.50
2018-07-02T11:51:24.051Z,25.40
2018-07-02T11:53:53.405Z,25.40
2018-07-02T11:56:22.734Z,25.30
2018-07-02T11:58:52.231Z,25.30
2018-07-02T12:01:21.665Z,25.30
2018-07-02T12:03:51.379Z,25.30
2018-07-02T12:06:20.822Z,25.30
2018-07-02T12:08:50.365Z,25.30
2018-07-02T12:11:20.718Z,25.30
2018-07-02T12:13:50.619Z,25.30
2018-07-02T12:16:20.146Z,25.30
2018-07-02T12:18:49.853Z,25.20
2018-07-02T12:21:19.364Z,25.20
2018-07-02T12:23:49.271Z,25.20
2018-07-02T12:26:18.623Z,25.20
2018-07-02T12:28:48.003Z,25.20
2018-07-02T12:31:17.341Z,25.20
2018-07-02T12:33:46.675Z,25.20
2018-07-02T12:36:15.981Z,25.20
2018-07-02T12:38:45.512Z,25.20
2018-07-02T12:41:15.798Z,25.10
2018-07-02T12:43:45.233Z,25.10
2018-07-02T12:46:14.674Z,25.10
2018-07-02T12:48:44.234Z,25.10
2018-07-02T12:51:13.673Z,25.10
2018-07-02T12:53:43.087Z,25.10
2018-07-02T12:56:12.628Z,25.00
2018-07-02T12:58:42.022Z,25.00
2018-07-02T13:01:11.365Z,25.00
2018-07-02T13:03:40.716Z,25.00
2018-07-02T13:06:10.537Z,25.00
2018-07-02T13:08:40.028Z,25.00
2018-07-02T13:11:09.501Z,25.00
2018-07-02T13:13:39.045Z,25.00
2018-07-02T13:16:08.374Z,25.00
2018-07-02T13:18:37.763Z,25.00
2018-07-02T13:21:07.237Z,25.00
2018-07-02T13:23:36.582Z,25.00
2018-07-02T13:26:06.093Z,25.00
2018-07-02T13:28:35.421Z,25.00
2018-07-02T13:31:04.884Z,25.10
2018-07-02T13:33:34.239Z,25.10
2018-07-02T13:36:03.655Z,25.10
2018-07-02T13:38:33.106Z,25.10
2018-07-02T13:41:02.444Z,25.10
2018-07-02T13:43:31.797Z,25.10
2018-07-02T13:46:01.152Z,25.10
2018-07-02T13:48:30.502Z,25.10
2018-07-02T13:50:59.860Z,25.10
2018-07-02T13:53:29.209Z,25.10
2018-07-02T13:55:58.596Z,25.10
2018-07-02T13:58:27.981Z,25.10
2018-07-02T14:00:57.352Z,25.10
2018-07-02T14:03:26.693Z,25.00
2018-07-02T14:05:56.069Z,25.00
2018-07-02T14:08:25.667Z,25.00
2018-07-02T14:10:55.050Z,25.00
2018-07-02T14:13:24.397Z,25.00
2018-07-02T14:15:53.778Z,25.00
2018-07-02T14:18:23.137Z,25.00
2018-07-02T14:20:52.561Z,25.00
2018-07-02T14:23:21.892Z,25.00
2018-07-02T14:25:51.273Z,25.00
2018-07-02T14:28:20.766Z,25.00
2018-07-02T14:30:50.162Z,25.00
2018-07-02T14:33:19.540Z,25.00
2018-07-02T14:35:48.943Z,25.00
2018-07-02T14:38:18.307Z,25.00
2018-07-02T14:40:47.709Z,25.00
2018-07-02T14:43:17.132Z,25.00
2018-07-02T14:45:46.525Z,25.00
2018-07-02T14:48:15.865Z,25.00
2018-07-02T14:50:45.180Z,25.00
2018-07-02T14:53:14.547Z,25.10
2018-07-02T14:55:43.988Z,25.00
2018-07-02T14:58:13.350Z,25.10
2018-07-02T15:00:42.717Z,25.00
2018-07-02T15:03:12.037Z,25.00
2018-07-02T15:05:41.500Z,25.00
2018-07-02T15:08:10.880Z,25.10
2018-07-02T15:10:40.508Z,25.10
2018-07-02T15:13:09.896Z,25.10
2018-07-02T15:15:39.340Z,25.10
2018-07-02T15:18:08.709Z,25.10
2018-07-02T15:20:38.051Z,25.10
2018-07-02T15:23:07.458Z,25.10
2018-07-02T15:25:36.965Z,25.10
2018-07-02T15:28:06.477Z,25.10
2018-07-02T15:30:35.856Z,25.10
2018-07-02T15:33:05.245Z,25.10
2018-07-02T15:35:34.604Z,25.10
2018-07-02T15:38:04.018Z,25.10
2018-07-02T15:40:33.400Z,25.10
2018-07-02T15:43:02.754Z,25.10
2018-07-02T15:45:32.196Z,25.10
2018-07-02T15:48:01.706Z,25.10
2018-07-02T15:50:31.134Z,25.10
2018-07-02T15:53:00.550Z,25.10
2018-07-02T15:55:29.961Z,25.20
2018-07-02T15:57:59.425Z,25.20
2018-07-02T16:00:28.935Z,25.20
2018-07-02T16:02:58.310Z,25.20
2018-07-02T16:05:27.831Z,25.20
2018-07-02T16:07:57.194Z,25.20
2018-07-02T16:10:27.103Z,25.20
2018-07-02T16:12:56.522Z,25.20
2018-07-02T16:15:25.908Z,25.20
2018-07-02T16:17:55.285Z,25.20
2018-07-02T16:20:24.671Z,25.20
2018-07-02T16:22:54.363Z,25.20
2018-07-02T16:25:23.587Z,25.20
2018-07-02T16:27:52.940Z,25.20
2018-07-02T16:30:22.429Z,25.20
2018-07-02T16:32:51.870Z,25.20
2018-07-02T16:35:21.291Z,25.20
2018-07-02T16:37:50.680Z,25.20
2018-07-02T16:40:20.113Z,25.20
2018-07-02T16:42:49.611Z,25.20
2018-07-02T16:45:19.050Z,25.20
2018-07-02T16:47:48.478Z,25.20
2018-07-02T16:50:17.851Z,25.20
2018-07-02T16:52:47.237Z,25.20
2018-07-02T16:55:16.650Z,25.20
2018-07-02T16:57:46.085Z,25.20
2018-07-02T17:00:15.560Z,25.20
2018-07-02T17:02:45.121Z,25.20
2018-07-02T17:05:14.514Z,25.20
2018-07-02T17:07:43.957Z,25.20
2018-07-02T17:10:13.345Z,25.20
2018-07-02T17:12:42.766Z,25.20
2018-07-02T17:15:12.198Z,25.20
2018-07-02T17:17:41.688Z,25.20
2018-07-02T17:20:11.149Z,25.20
2018-07-02T17:22:41.098Z,25.20
2018-07-02T17:25:10.702Z,25.20
2018-07-02T17:27:40.100Z,25.20
2018-07-02T17:30:10.822Z,25.10
2018-07-02T17:32:40.369Z,25.10
2018-07-02T17:35:09.825Z,25.10
2018-07-02T17:37:39.284Z,25.10
2018-07-02T17:40:08.957Z,25.10
2018-07-02T17:42:38.652Z,25.10
2018-07-02T17:45:08.112Z,25.10
2018-07-02T17:47:44.132Z,25.10
2018-07-02T17:50:13.688Z,25.10
2018-07-02T17:52:43.104Z,25.10
2018-07-02T17:55:12.521Z,25.10
2018-07-02T17:57:41.945Z,25.10
2018-07-02T18:00:11.328Z,25.10
2018-07-02T18:02:40.767Z,25.10
2018-07-02T18:05:10.242Z,25.00
2018-07-02T18:07:39.810Z,25.00
2018-07-02T18:10:09.217Z,25.00
2018-07-02T18:12:38.573Z,25.00
2018-07-02T18:15:07.972Z,25.00
2018-07-02T18:17:37.409Z,25.00
2018-07-02T18:20:06.511Z,25.00
2018-07-02T18:22:35.880Z,25.00
2018-07-02T18:25:05.509Z,25.00
2018-07-02T18:27:34.906Z,24.90
2018-07-02T18:30:04.754Z,24.90
2018-07-02T18:32:33.837Z,24.90
2018-07-02T18:35:03.293Z,24.90
2018-07-02T18:37:32.711Z,24.90
2018-07-02T18:40:02.177Z,24.90
2018-07-02T18:42:31.545Z,24.80
2018-07-02T18:45:00.944Z,24.80
2018-07-02T18:47:30.313Z,24.80
2018-07-02T18:49:59.743Z,24.80
2018-07-02T18:52:29.231Z,24.70
2018-07-02T18:54:58.645Z,24.70
2018-07-02T18:57:29.311Z,24.70
2018-07-02T18:59:58.704Z,24.60
2018-07-02T19:02:28.081Z,24.60
2018-07-02T19:04:57.497Z,24.60
2018-07-02T19:07:26.865Z,24.50
2018-07-02T19:09:56.282Z,24.50
2018-07-02T19:12:25.707Z,24.50
2018-07-02T19:14:55.109Z,24.50
2018-07-02T19:17:24.490Z,24.40
2018-07-02T19:19:53.939Z,24.40
2018-07-02T19:22:23.408Z,24.40
2018-07-02T19:24:52.801Z,24.30
2018-07-02T19:27:22.266Z,24.30
2018-07-02T19:29:51.844Z,24.30
2018-07-02T19:32:21.219Z,24.20
2018-07-02T19:34:50.773Z,24.20
2018-07-02T19:37:20.244Z,24.10
2018-07-02T19:39:49.854Z,24.10
2018-07-02T19:42:19.260Z,24.00
2018-07-02T19:44:49.483Z,24.00
2018-07-02T19:47:18.892Z,23.90
2018-07-02T19:49:48.281Z,23.90
2018-07-02T19:52:17.616Z,23.80
2018-07-02T19:54:47.020Z,23.70
2018-07-02T19:57:16.473Z,23.70
2018-07-02T19:59:45.892Z,23.70
2018-07-02T20:02:15.340Z,23.60
2018-07-02T20:04:44.689Z,23.60
2018-07-02T20:07:14.208Z,23.50
2018-07-02T20:09:43.542Z,23.50
2018-07-02T20:12:13.194Z,23.40
2018-07-02T20:14:42.644Z,23.40
2018-07-02T20:17:12.198Z,23.40
2018-07-02T20:19:41.561Z,23.30
2018-07-02T20:22:11.081Z,23.20
2018-07-02T20:24:40.597Z,23.20
2018-07-02T20:27:10.078Z,23.10
2018-07-02T20:29:39.424Z,23.10
2018-07-02T20:32:08.844Z,23.00
2018-07-02T20:34:38.236Z,23.00
2018-07-02T20:37:07.736Z,22.90
2018-07-02T20:39:37.189Z,22.90
2018-07-02T20:42:06.664Z,22.80
2018-07-02T20:44:35.729Z,22.80
2018-07-02T20:47:05.182Z,22.80
2018-07-02T20:49:34.573Z,22.70
2018-07-02T20:52:04.041Z,22.60
2018-07-02T20:54:33.437Z,22.60
2018-07-02T20:57:02.870Z,22.50
2018-07-02T20:59:32.280Z,22.50
2018-07-02T21:02:01.688Z,22.40
2018-07-02T21:04:31.325Z,22.40
2018-07-02T21:07:00.757Z,22.30
2018-07-02T21:09:30.149Z,22.30
2018-07-02T21:11:59.516Z,22.20
2018-07-02T21:14:28.969Z,22.20
2018-07-02T21:16:58.348Z,22.10
2018-07-02T21:19:27.770Z,22.10
2018-07-02T21:21:57.144Z,22.00
2018-07-02T21:24:26.512Z,22.00
2018-07-02T21:26:55.906Z,21.90
2018-07-02T21:29:25.281Z,21.90
2018-07-02T21:31:54.347Z,21.90
2018-07-02T21:34:23.721Z,21.80
2018-07-02T21:36:53.262Z,21.80
2018-07-02T21:39:22.633Z,21.80
2018-07-02T21:41:52.021Z,21.70
2018-07-02T21:44:21.387Z,21.70
2018-07-02T21:46:50.739Z,21.60
2018-07-02T21:49:20.081Z,21.60
2018-07-02T21:51:49.403Z,21.60
2018-07-02T21:54:18.841Z,21.50
2018-07-02T21:56:48.244Z,21.50
2018-07-02T21:59:17.701Z,21.50
2018-07-02T22:01:47.198Z,21.50
2018-07-02T22:04:16.631Z,21.40
2018-07-02T22:06:46.036Z,21.40
2018-07-02T22:09:15.519Z,21.30
2018-07-02T22:11:44.871Z,21.30
2018-07-02T22:14:14.348Z,21.30
2018-07-02T22:16:43.760Z,21.20
2018-07-02T22:19:13.201Z,21.20
2018-07-02T22:21:42.654Z,21.20
2018-07-02T22:24:12.049Z,21.10
2018-07-02T22:26:41.473Z,21.10
2018-07-02T22:29:10.787Z,21.10
2018-07-02T22:31:40.161Z,21.10
2018-07-02T22:34:09.542Z,21.00
2018-07-02T22:36:38.916Z,21.00
2018-07-02T22:39:10.816Z,21.00
2018-07-02T22:41:40.206Z,20.90
2018-07-02T22:44:10.110Z,20.90
2018-07-02T22:46:39.493Z,20.90
2018-07-02T22:49:08.821Z,20.80
2018-07-02T22:51:38.187Z,20.80
2018-07-02T22:54:07.581Z,20.80
2018-07-02T22:56:36.940Z,20.70
2018-07-02T22:59:06.311Z,20.70
2018-07-02T23:01:35.760Z,20.60
2018-07-02T23:04:05.285Z,20.60
2018-07-02T23:06:34.607Z,20.60
2018-07-02T23:09:04.401Z,20.50
2018-07-02T23:11:33.729Z,20.50
2018-07-02T23:14:03.184Z,20.50
2018-07-02T23:16:32.577Z,20.50
2018-07-02T23:19:02.038Z,20.40
2018-07-02T23:21:31.413Z,20.40
2018-07-02T23:24:00.735Z,20.30
2018-07-02T23:26:30.129Z,20.30
2018-07-02T23:28:59.466Z,20.30
2018-07-02T23:31:28.808Z,20.20
2018-07-02T23:33:58.253Z,20.20
2018-07-02T23:36:27.601Z,20.20
2018-07-02T23:38:56.945Z,20.20
2018-07-02T23:41:26.317Z,20.10
2018-07-02T23:43:55.672Z,20.10
2018-07-02T23:46:25.013Z,20.10
2018-07-02T23:48:54.378Z,20.00
2018-07-02T23:51:23.737Z,20.00
2018-07-02T23:53:53.929Z,20.00
2018-07-02T23:56:23.336Z,20.00
2018-07-02T23:58:52.684Z,19.90
